createdAt,value
2023-05-19T00:03:34.167Z,100960.38
2023-05-19T00:08:39.887Z,100954.72
2023-05-19T00:13:44.205Z,100956.16
2023-05-19T00:18:47.872Z,100951.50
2023-05-19T00:23:53.220Z,100954.44
2023-05-19T00:28:56.922Z,100953.47
2023-05-19T00:34:00.611Z,100965.75
2023-05-19T00:39:06.964Z,100964.06
2023-05-19T00:44:10.664Z,100964.69
2023-05-19T00:49:14.380Z,100953.88
2023-05-19T00:54:21.357Z,100968.75
2023-05-19T00:59:25.831Z,100962.69
2023-05-19T01:04:29.766Z,100960.34
2023-05-19T01:09:35.167Z,100968.31
2023-05-19T01:14:39.109Z,100971.63
2023-05-19T01:20:01.722Z,100963.78
2023-05-19T01:25:40.976Z,100960.25
2023-05-19T01:30:49.486Z,100957.75
2023-05-19T01:35:54.815Z,100961.81
2023-05-19T01:40:59.137Z,100972.69
2023-05-19T01:46:04.624Z,100975.66
2023-05-19T01:51:08.330Z,100984.06
2023-05-19T01:56:13.353Z,100980.59
2023-05-19T02:01:29.661Z,100966.88
2023-05-19T02:06:42.524Z,100972.78
2023-05-19T02:11:55.438Z,100974.59
2023-05-19T02:17:02.332Z,100976.31
2023-05-19T02:22:06.433Z,100979.16
2023-05-19T02:27:10.071Z,100974.00
2023-05-19T02:32:16.606Z,100977.88
2023-05-19T02:37:20.406Z,100977.34
2023-05-19T02:42:24.119Z,100983.28
2023-05-19T02:47:29.464Z,100988.50
2023-05-19T02:52:33.124Z,100990.38
2023-05-19T02:57:36.808Z,100993.13
2023-05-19T03:02:42.190Z,100990.88
2023-05-19T03:07:45.940Z,100989.31
2023-05-19T03:12:49.620Z,100997.84
2023-05-19T03:17:55.907Z,100995.31
2023-05-19T03:22:59.651Z,101009.22
2023-05-19T03:28:03.337Z,101011.88
2023-05-19T03:33:08.735Z,101015.75
2023-05-19T03:38:12.500Z,101026.44
2023-05-19T03:43:16.446Z,101029.50
2023-05-19T03:48:21.786Z,101037.47
2023-05-19T03:53:24.699Z,101038.88
2023-05-19T03:58:28.321Z,101046.19
2023-05-19T04:03:34.726Z,101045.34
2023-05-19T04:08:38.429Z,101044.22
2023-05-19T04:13:42.032Z,101050.41
2023-05-19T04:18:47.429Z,101058.34
2023-05-19T04:23:50.448Z,101050.88
2023-05-19T04:28:54.183Z,101061.59
2023-05-19T04:33:59.557Z,101057.59
2023-05-19T04:39:03.382Z,101064.84
2023-05-19T04:44:07.212Z,101065.19
2023-05-19T04:49:12.554Z,101066.75
2023-05-19T04:54:16.269Z,101067.28
2023-05-19T04:59:19.918Z,101072.84
2023-05-19T05:04:25.428Z,101081.22
2023-05-19T05:09:29.094Z,101069.63
2023-05-19T05:14:33.354Z,101073.56
2023-05-19T05:19:39.574Z,101080.28
2023-05-19T05:24:43.852Z,101086.78
2023-05-19T05:29:47.666Z,101096.06
2023-05-19T05:34:53.196Z,101100.19
2023-05-19T05:39:56.876Z,101097.81
2023-05-19T05:45:00.511Z,101104.00
2023-05-19T05:50:07.121Z,101100.63
2023-05-19T05:55:12.131Z,101103.81
2023-05-19T06:00:16.565Z,101105.81
2023-05-19T06:05:22.151Z,101108.91
2023-05-19T06:10:25.850Z,101106.53
2023-05-19T06:15:30.192Z,101114.53
2023-05-19T06:20:36.128Z,101114.75
2023-05-19T06:25:39.898Z,101120.56
2023-05-19T06:30:43.570Z,101109.63
2023-05-19T06:35:48.894Z,101119.28
2023-05-19T06:40:52.553Z,101115.22
2023-05-19T06:45:56.198Z,101118.69
2023-05-19T06:51:01.550Z,101127.03
2023-05-19T06:56:05.436Z,101125.31
2023-05-19T07:01:09.194Z,101120.38
2023-05-19T07:06:14.666Z,101115.44
2023-05-19T07:11:18.302Z,101115.00
2023-05-19T07:16:22.056Z,101115.38
2023-05-19T07:21:28.263Z,101114.41
2023-05-19T07:26:31.931Z,101114.78
2023-05-19T07:31:35.608Z,101120.13
2023-05-19T07:36:41.005Z,101113.16
2023-05-19T07:41:44.755Z,101116.72
2023-05-19T07:46:48.448Z,101118.06
2023-05-19T07:51:54.336Z,101101.41
2023-05-19T07:56:57.194Z,101114.81
2023-05-19T08:02:00.892Z,101115.06
2023-05-19T08:07:06.297Z,101122.13
2023-05-19T08:12:09.996Z,101112.69
2023-05-19T08:17:13.615Z,101117.19
2023-05-19T08:22:18.908Z,101115.59
2023-05-19T08:27:22.581Z,101113.31
2023-05-19T08:32:26.392Z,101115.88
2023-05-19T08:37:33.988Z,101115.94
2023-05-19T08:42:37.875Z,101108.31
2023-05-19T08:47:43.686Z,101112.06
2023-05-19T08:52:53.249Z,101107.88
2023-05-19T08:57:57.773Z,101107.41
2023-05-19T09:08:12.047Z,101103.13
2023-05-19T09:13:15.715Z,101103.13
2023-05-19T09:18:19.385Z,101101.66
2023-05-19T09:23:24.840Z,101100.81
2023-05-19T09:28:29.590Z,101106.91
2023-05-19T09:33:35.021Z,101111.63
2023-05-19T09:38:40.888Z,101108.44
2023-05-19T09:43:44.703Z,101100.81
2023-05-19T09:48:48.339Z,101109.66
2023-05-19T09:53:54.056Z,101102.81
2023-05-19T09:58:57.712Z,101100.16
2023-05-19T10:04:03.079Z,101098.56
2023-05-19T10:09:08.336Z,101096.88
2023-05-19T10:14:12.273Z,101106.63
2023-05-19T10:19:16.668Z,101108.44
2023-05-19T10:24:22.263Z,101111.22
2023-05-19T10:29:32.772Z,101108.84
2023-05-19T10:35:08.829Z,101107.97
2023-05-19T10:40:22.224Z,101114.09
2023-05-19T10:45:31.506Z,101108.78
2023-05-19T10:50:37.597Z,101114.19
2023-05-19T10:55:52.118Z,101118.56
2023-05-19T11:01:02.014Z,101130.97
2023-05-19T11:06:19.958Z,101130.25
2023-05-19T11:11:25.270Z,101140.91
2023-05-19T11:16:29.840Z,101141.91
2023-05-19T11:21:49.617Z,101131.44
2023-05-19T11:26:56.133Z,101124.66
2023-05-19T11:32:00.243Z,101131.63
2023-05-19T11:37:04.911Z,101132.56
2023-05-19T11:42:10.656Z,101133.66
2023-05-19T11:47:14.500Z,101141.78
2023-05-19T11:52:18.425Z,101150.50
2023-05-19T11:57:23.806Z,101152.38
2023-05-19T12:02:27.633Z,101149.75
2023-05-19T12:07:32.180Z,101158.44
2023-05-19T12:12:38.029Z,101161.22
2023-05-19T12:17:41.728Z,101171.69
2023-05-19T12:22:45.666Z,101166.59
2023-05-19T12:27:51.195Z,101155.31
2023-05-19T12:32:56.085Z,101151.03
2023-05-19T12:38:04.210Z,101168.69
2023-05-19T12:43:09.674Z,101178.28
2023-05-19T12:48:13.522Z,101188.94
2023-05-19T12:53:17.253Z,101188.16
2023-05-19T12:58:22.630Z,101193.34
2023-05-19T13:03:26.429Z,101199.41
2023-05-19T13:08:30.168Z,101202.03
2023-05-19T13:13:35.484Z,101195.97
2023-05-19T13:18:39.199Z,101204.72
2023-05-19T13:23:42.862Z,101212.72
2023-05-19T13:28:48.172Z,101210.97
2023-05-19T13:33:51.820Z,101222.09
2023-05-19T13:38:55.589Z,101231.69
2023-05-19T13:44:01.732Z,101229.66
2023-05-19T13:49:04.621Z,101239.94
2023-05-19T13:54:08.298Z,101243.34
2023-05-19T13:59:13.675Z,101259.47
2023-05-19T14:04:19.617Z,101266.59
2023-05-19T14:09:22.693Z,101267.75
2023-05-19T14:14:28.980Z,101273.97
2023-05-19T14:19:32.641Z,101279.72
2023-05-19T14:24:36.446Z,101280.84
2023-05-19T14:29:42.618Z,101293.03
2023-05-19T14:34:46.270Z,101301.88
2023-05-19T14:39:50.589Z,101305.06
2023-05-19T14:44:55.901Z,101312.97
2023-05-19T14:49:59.552Z,101314.16
2023-05-19T14:55:03.210Z,101316.84
2023-05-19T15:00:09.776Z,101317.19
2023-05-19T15:05:13.463Z,101324.00
2023-05-19T15:10:17.141Z,101323.09
2023-05-19T15:15:22.522Z,101337.94
2023-05-19T15:20:28.026Z,101337.53
2023-05-19T15:25:33.066Z,101340.00
2023-05-19T15:30:38.496Z,101344.44
2023-05-19T15:35:41.505Z,101354.53
2023-05-19T15:40:45.224Z,101353.78
2023-05-19T15:45:50.576Z,101355.09
2023-05-19T15:50:54.285Z,101361.81
2023-05-19T15:55:57.972Z,101360.53
2023-05-19T16:01:03.483Z,101370.66
2023-05-19T16:06:07.251Z,101363.81
2023-05-19T16:11:10.931Z,101360.44
2023-05-19T16:16:16.319Z,101351.78
2023-05-19T16:21:20.030Z,101358.56
2023-05-19T16:26:23.746Z,101368.38
2023-05-19T16:31:29.115Z,101364.81
2023-05-19T16:36:32.859Z,101368.25
2023-05-19T16:41:36.503Z,101365.53
2023-05-19T16:46:41.848Z,101360.25
2023-05-19T16:51:46.204Z,101358.44
2023-05-19T16:56:51.724Z,101357.28
2023-05-19T17:01:57.109Z,101349.75
2023-05-19T17:07:00.846Z,101342.44
2023-05-19T17:12:04.921Z,101354.59
2023-05-19T17:17:10.308Z,101355.88
2023-05-19T17:22:14.065Z,101363.78
2023-05-19T17:27:17.728Z,101375.38
2023-05-19T17:32:23.020Z,101365.84
2023-05-19T17:37:26.717Z,101362.84
2023-05-19T17:42:30.369Z,101363.50
2023-05-19T17:47:35.787Z,101357.91
2023-05-19T17:52:40.988Z,101359.72
2023-05-19T17:57:46.918Z,101365.47
2023-05-19T18:02:53.227Z,101366.19
2023-05-19T18:07:58.133Z,101360.47
2023-05-19T18:13:01.044Z,101370.94
2023-05-19T18:18:06.420Z,101370.13
2023-05-19T18:23:10.113Z,101363.88
2023-05-19T18:28:13.777Z,101360.84
2023-05-19T18:33:19.732Z,101368.66
2023-05-19T18:38:23.407Z,101377.13
2023-05-19T18:43:27.108Z,101372.34
2023-05-19T18:48:32.740Z,101370.47
2023-05-19T18:53:36.885Z,101362.50
2023-05-19T18:58:40.519Z,101361.97
2023-05-19T19:03:46.778Z,101361.09
2023-05-19T19:08:50.558Z,101358.72
2023-05-19T19:13:54.318Z,101358.25
2023-05-19T19:18:59.831Z,101361.13
2023-05-19T19:24:03.585Z,101352.06
2023-05-19T19:29:07.271Z,101362.66
2023-05-19T19:34:12.602Z,101355.19
2023-05-19T19:39:16.252Z,101365.19
2023-05-19T19:44:19.924Z,101361.47
2023-05-19T19:49:25.261Z,101359.22
2023-05-19T19:54:28.988Z,101362.81
2023-05-19T19:59:32.708Z,101363.66
2023-05-19T20:04:38.109Z,101366.81
2023-05-19T20:09:41.990Z,101364.47
2023-05-19T20:14:45.650Z,101371.66
2023-05-19T20:19:51.020Z,101363.75
2023-05-19T20:24:54.706Z,101366.66
2023-05-19T20:29:58.374Z,101360.78
2023-05-19T20:35:04.806Z,101361.09
2023-05-19T20:40:09.498Z,101372.63
2023-05-19T20:45:12.438Z,101374.47
2023-05-19T20:50:17.813Z,101374.16
2023-05-19T20:55:21.498Z,101380.88
2023-05-19T21:00:25.337Z,101369.50
2023-05-19T21:05:30.775Z,101363.28
2023-05-19T21:10:34.606Z,101360.97
2023-05-19T21:15:38.408Z,101361.31
2023-05-19T21:20:43.764Z,101355.13
2023-05-19T21:25:47.442Z,101355.50
2023-05-19T21:30:51.123Z,101349.91
2023-05-19T21:35:57.434Z,101347.44
2023-05-19T21:41:01.046Z,101348.31
2023-05-19T21:46:04.804Z,101350.97
2023-05-19T21:51:10.135Z,101334.59
2023-05-19T21:56:13.727Z,101343.50
2023-05-19T22:01:17.437Z,101344.41
2023-05-19T22:06:23.760Z,101346.41
2023-05-19T22:11:27.504Z,101340.16
2023-05-19T22:16:31.262Z,101342.91
2023-05-19T22:21:36.604Z,101346.13
2023-05-19T22:26:40.322Z,101335.16
2023-05-19T22:31:43.970Z,101333.94
2023-05-19T22:36:49.303Z,101340.66
2023-05-19T22:41:52.946Z,101325.31
2023-05-19T22:46:56.651Z,101335.41
2023-05-19T22:52:01.961Z,101336.69
2023-05-19T22:57:06.100Z,101339.47
2023-05-19T23:02:09.868Z,101339.56
2023-05-19T23:07:15.126Z,101335.25
2023-05-19T23:12:18.764Z,101322.94
2023-05-19T23:17:22.414Z,101315.81
2023-05-19T23:22:27.714Z,101312.69
2023-05-19T23:27:31.380Z,101306.63
2023-05-19T23:32:35.071Z,101294.53
2023-05-19T23:37:40.425Z,101298.19
2023-05-19T23:42:44.156Z,101296.38
2023-05-19T23:47:47.784Z,101299.28
2023-05-19T23:52:53.158Z,101309.00
2023-05-19T23:57:56.811Z,101299.38
